createdAt,value
2023-02-16T00:01:52.695Z,8.60
2023-02-16T00:04:23.715Z,8.60
2023-02-16T00:06:52.117Z,8.60
2023-02-16T00:09:19.857Z,8.60
2023-02-16T00:12:07.109Z,8.70
2023-02-16T00:14:36.523Z,8.70
2023-02-16T00:17:04.003Z,8.80
2023-02-16T00:19:34.816Z,8.80
2023-02-16T00:22:02.598Z,8.80
2023-02-16T00:24:31.075Z,8.80
2023-02-16T00:26:59.628Z,8.80
2023-02-16T00:29:32.692Z,8.70
2023-02-16T00:32:02.441Z,8.70
2023-02-16T00:34:38.440Z,9.20
2023-02-16T00:37:08.939Z,9.40
2023-02-16T00:39:37.764Z,9.50
2023-02-16T00:42:10.547Z,9.60
2023-02-16T00:44:46.848Z,9.60
2023-02-16T00:47:34.495Z,9.70
2023-02-16T00:50:01.805Z,9.70
2023-02-16T00:52:36.539Z,9.70
2023-02-16T00:55:08.733Z,9.70
2023-02-16T00:57:43.968Z,9.70
2023-02-16T01:00:18.465Z,9.70
2023-02-16T01:02:49.005Z,9.80
2023-02-16T01:05:17.074Z,9.80
2023-02-16T01:08:04.719Z,9.80
2023-02-16T01:10:51.699Z,9.80
2023-02-16T01:13:19.083Z,9.80
2023-02-16T01:15:46.571Z,9.70
2023-02-16T01:18:15.750Z,9.80
2023-02-16T01:20:43.128Z,9.80
2023-02-16T01:23:10.327Z,9.80
2023-02-16T01:25:38.349Z,9.80
2023-02-16T01:28:22.257Z,9.80
2023-02-16T01:30:50.314Z,9.80
2023-02-16T01:33:17.938Z,9.80
2023-02-16T01:35:45.624Z,9.80
2023-02-16T01:38:25.045Z,9.80
2023-02-16T01:41:00.525Z,9.80
2023-02-16T01:43:45.446Z,9.80
2023-02-16T01:46:18.161Z,9.80
2023-02-16T01:48:45.537Z,9.90
2023-02-16T01:51:22.216Z,9.90
2023-02-16T01:54:12.582Z,9.90
2023-02-16T01:56:49.890Z,10.00
2023-02-16T02:00:01.809Z,10.00
2023-02-16T02:02:44.471Z,10.00
2023-02-16T02:05:36.048Z,10.00
2023-02-16T02:08:23.805Z,10.00
2023-02-16T02:11:07.344Z,10.10
2023-02-16T02:13:37.544Z,10.10
2023-02-16T02:16:06.573Z,10.10
2023-02-16T02:18:33.937Z,10.00
2023-02-16T02:21:49.204Z,10.10
2023-02-16T02:24:28.563Z,10.10
2023-02-16T02:27:10.939Z,10.10
2023-02-16T02:30:02.863Z,10.10
2023-02-16T02:32:51.167Z,10.10
2023-02-16T02:35:30.247Z,10.10
2023-02-16T02:38:00.445Z,10.10
2023-02-16T02:40:59.534Z,10.10
2023-02-16T02:44:03.328Z,10.10
2023-02-16T02:46:36.623Z,10.10
2023-02-16T02:49:04.035Z,10.10
2023-02-16T02:51:31.314Z,10.10
2023-02-16T02:54:21.929Z,10.10
2023-02-16T02:57:25.817Z,10.10
2023-02-16T03:00:26.517Z,10.00
2023-02-16T03:02:59.816Z,10.10
2023-02-16T03:05:31.675Z,10.10
2023-02-16T03:08:14.386Z,10.00
2023-02-16T03:11:12.945Z,10.00
2023-02-16T03:13:44.790Z,10.10
2023-02-16T03:16:22.376Z,10.10
2023-02-16T03:19:08.039Z,10.10
2023-02-16T03:21:54.793Z,10.10
2023-02-16T03:24:51.539Z,10.10
2023-02-16T03:27:46.148Z,10.00
2023-02-16T03:30:15.659Z,10.00
2023-02-16T03:32:44.787Z,9.90
2023-02-16T03:44:38.196Z,9.90
2023-02-16T03:47:05.337Z,9.90
2023-02-16T03:49:32.529Z,9.80
2023-02-16T03:54:18.291Z,9.80
2023-02-16T03:56:45.441Z,9.70
2023-02-16T03:59:12.947Z,9.70
2023-02-16T04:01:40.150Z,9.70
2023-02-16T04:04:07.300Z,9.60
2023-02-16T04:06:34.542Z,9.60
2023-02-16T04:09:01.984Z,9.60
2023-02-16T04:11:47.764Z,9.60
2023-02-16T04:16:30.879Z,9.50
2023-02-16T04:18:58.057Z,9.50
2023-02-16T04:21:25.214Z,9.50
2023-02-16T04:23:52.395Z,9.50
2023-02-16T04:26:19.522Z,9.50
2023-02-16T04:28:46.686Z,9.50
2023-02-16T04:31:14.029Z,9.50
2023-02-16T04:33:41.339Z,9.50
2023-02-16T04:36:09.074Z,9.50
2023-02-16T04:38:36.263Z,9.50
2023-02-16T04:41:03.655Z,9.50
2023-02-16T04:43:31.137Z,9.50
2023-02-16T04:45:58.629Z,9.40
2023-02-16T04:48:25.905Z,9.40
2023-02-16T04:50:53.181Z,9.40
2023-02-16T04:53:20.456Z,9.50
2023-02-16T04:55:49.425Z,9.50
2023-02-16T04:58:17.474Z,9.50
2023-02-16T05:00:44.772Z,9.50
2023-02-16T05:03:11.945Z,9.50
2023-02-16T05:05:39.200Z,9.50
2023-02-16T05:08:06.465Z,9.50
2023-02-16T05:10:33.713Z,9.50
2023-02-16T05:13:19.705Z,9.50
2023-02-16T05:15:46.950Z,9.60
2023-02-16T05:18:14.414Z,9.50
2023-02-16T05:21:00.104Z,9.60
2023-02-16T05:23:27.318Z,9.60
2023-02-16T05:25:54.573Z,9.60
2023-02-16T05:28:21.891Z,9.60
2023-02-16T05:30:49.212Z,9.70
2023-02-16T05:33:16.715Z,9.70
2023-02-16T05:35:43.931Z,9.60
2023-02-16T05:38:11.007Z,9.60
2023-02-16T05:40:38.140Z,9.60
2023-02-16T05:43:05.324Z,9.70
2023-02-16T05:45:32.664Z,9.70
2023-02-16T05:47:59.789Z,9.70
2023-02-16T05:50:27.009Z,9.70
2023-02-16T05:52:54.276Z,9.80
2023-02-16T05:55:21.391Z,9.80
2023-02-16T05:57:48.662Z,9.80
2023-02-16T06:00:16.239Z,9.80
2023-02-16T06:02:43.724Z,9.80
2023-02-16T06:05:10.716Z,9.80
2023-02-16T06:07:37.770Z,9.80
2023-02-16T06:10:05.289Z,9.80
2023-02-16T06:12:32.523Z,9.80
2023-02-16T06:14:59.510Z,9.80
2023-02-16T06:17:26.649Z,9.80
2023-02-16T06:19:53.675Z,9.80
2023-02-16T06:22:20.714Z,9.80
2023-02-16T06:24:47.910Z,9.80
2023-02-16T06:27:14.902Z,9.80
2023-02-16T06:29:42.057Z,9.80
2023-02-16T06:32:09.360Z,9.80
2023-02-16T06:34:36.405Z,9.80
2023-02-16T06:37:03.625Z,9.80
2023-02-16T06:39:30.651Z,9.80
2023-02-16T06:41:57.657Z,9.80
2023-02-16T06:44:24.728Z,9.70
2023-02-16T06:46:51.821Z,9.80
2023-02-16T06:49:21.128Z,9.80
2023-02-16T06:51:48.783Z,9.80
2023-02-16T06:54:16.847Z,9.80
2023-02-16T06:56:44.053Z,9.80
2023-02-16T06:59:12.170Z,9.80
2023-02-16T07:01:39.745Z,9.80
2023-02-16T07:04:06.743Z,9.80
2023-02-16T07:06:33.735Z,9.80
2023-02-16T07:09:00.883Z,9.90
2023-02-16T07:11:28.024Z,9.90
2023-02-16T07:13:55.291Z,9.90
2023-02-16T07:16:22.383Z,9.90
2023-02-16T07:18:49.516Z,10.00
2023-02-16T07:21:16.696Z,9.90
2023-02-16T07:23:44.224Z,10.00
2023-02-16T07:26:12.001Z,10.00
2023-02-16T07:28:39.109Z,10.10
2023-02-16T07:31:11.424Z,10.20
2023-02-16T07:33:39.156Z,10.20
2023-02-16T07:36:07.244Z,10.30
2023-02-16T07:38:34.346Z,10.30
2023-02-16T07:41:01.449Z,10.40
2023-02-16T07:43:28.493Z,10.40
2023-02-16T07:45:55.727Z,10.50
2023-02-16T07:48:22.825Z,10.50
2023-02-16T07:50:49.836Z,10.60
2023-02-16T07:53:16.939Z,10.60
2023-02-16T07:55:45.735Z,10.60
2023-02-16T07:58:27.374Z,10.70
2023-02-16T08:01:12.013Z,10.70
2023-02-16T08:03:41.120Z,10.70
2023-02-16T08:06:09.121Z,10.70
2023-02-16T08:08:37.194Z,10.80
2023-02-16T08:11:18.696Z,10.80
2023-02-16T08:13:46.394Z,10.90
2023-02-16T08:16:25.254Z,11.00
2023-02-16T08:18:53.464Z,11.10
2023-02-16T08:21:23.655Z,11.10
2023-02-16T08:24:02.524Z,11.20
2023-02-16T08:26:37.841Z,11.30
2023-02-16T08:29:06.007Z,11.40
2023-02-16T08:31:35.343Z,11.40
2023-02-16T08:34:03.446Z,11.50
2023-02-16T08:36:35.845Z,11.60
2023-02-16T08:39:06.165Z,11.80
2023-02-16T08:41:35.681Z,11.90
2023-02-16T08:44:03.212Z,12.10
2023-02-16T08:46:30.937Z,12.30
2023-02-16T08:49:00.163Z,12.40
2023-02-16T08:51:29.357Z,12.40
2023-02-16T08:53:58.532Z,12.40
2023-02-16T08:56:26.389Z,12.40
2023-02-16T08:58:53.932Z,12.70
2023-02-16T09:01:20.940Z,12.60
2023-02-16T09:03:48.735Z,12.60
2023-02-16T09:06:17.429Z,12.70
2023-02-16T09:08:46.503Z,12.90
2023-02-16T09:11:14.454Z,13.10
2023-02-16T09:13:42.134Z,13.20
2023-02-16T09:16:12.024Z,13.20
2023-02-16T09:18:40.290Z,13.10
2023-02-16T09:21:11.316Z,13.20
2023-02-16T09:23:40.553Z,13.20
2023-02-16T09:26:09.735Z,13.20
2023-02-16T09:28:38.365Z,13.20
2023-02-16T09:31:10.592Z,13.10
2023-02-16T09:33:38.678Z,13.00
2023-02-16T09:36:07.825Z,13.00
2023-02-16T09:38:35.810Z,13.20
2023-02-16T09:41:10.612Z,13.40
2023-02-16T09:43:49.580Z,13.40
2023-02-16T09:46:22.571Z,13.40
2023-02-16T09:48:51.039Z,13.60
2023-02-16T09:51:33.902Z,13.70
2023-02-16T09:54:30.850Z,13.80
2023-02-16T09:57:35.970Z,13.90
2023-02-16T10:00:23.960Z,13.60
2023-02-16T10:03:13.747Z,13.50
2023-02-16T10:06:02.649Z,13.50
2023-02-16T10:08:39.068Z,13.40
2023-02-16T10:11:33.267Z,13.50
2023-02-16T10:14:07.987Z,13.50
2023-02-16T10:16:42.783Z,13.50
2023-02-16T10:19:23.574Z,13.70
2023-02-16T10:21:56.515Z,13.70
2023-02-16T10:24:27.866Z,13.70
2023-02-16T10:27:03.709Z,13.80
2023-02-16T10:29:33.840Z,14.00
2023-02-16T10:32:24.722Z,14.10
2023-02-16T10:35:10.896Z,13.90
2023-02-16T10:38:02.999Z,13.80
2023-02-16T10:40:46.957Z,13.80
2023-02-16T10:43:47.769Z,13.80
2023-02-16T10:46:24.854Z,13.70
2023-02-16T10:48:55.851Z,13.60
2023-02-16T10:51:28.255Z,13.40
2023-02-16T10:54:01.400Z,13.50
2023-02-16T10:56:54.327Z,13.60
2023-02-16T10:59:24.715Z,13.70
2023-02-16T11:01:59.655Z,13.80
2023-02-16T11:04:32.785Z,13.60
2023-02-16T11:07:31.321Z,13.80
2023-02-16T11:10:03.144Z,13.90
2023-02-16T11:12:39.590Z,13.80
2023-02-16T11:15:18.956Z,13.80
2023-02-16T11:17:54.987Z,13.70
2023-02-16T11:20:28.650Z,13.60
2023-02-16T11:23:18.468Z,13.50
2023-02-16T11:26:03.735Z,13.40
2023-02-16T11:28:38.488Z,13.30
2023-02-16T11:31:19.350Z,13.20
2023-02-16T11:33:58.239Z,13.30
2023-02-16T11:36:31.674Z,13.50
2023-02-16T11:39:13.865Z,13.60
2023-02-16T11:41:59.011Z,13.90
2023-02-16T11:44:35.763Z,14.10
2023-02-16T11:47:08.053Z,14.10
2023-02-16T11:49:40.952Z,14.10
2023-02-16T11:52:27.341Z,14.00
2023-02-16T11:54:57.585Z,14.00
2023-02-16T11:57:31.157Z,13.90
2023-02-16T12:00:00.785Z,13.90
2023-02-16T12:02:38.728Z,14.10
2023-02-16T12:05:26.229Z,14.20
2023-02-16T12:07:53.444Z,13.90
2023-02-16T12:10:35.754Z,13.80
2023-02-16T12:13:33.889Z,14.00
2023-02-16T12:16:31.535Z,14.10
2023-02-16T12:19:26.962Z,14.00
2023-02-16T12:22:04.197Z,14.00
2023-02-16T12:25:02.969Z,13.90
2023-02-16T12:27:54.251Z,13.70
2023-02-16T12:30:40.024Z,13.90
2023-02-16T12:33:49.683Z,13.90
2023-02-16T12:36:30.746Z,13.80
2023-02-16T12:39:29.111Z,13.90
2023-02-16T12:42:08.876Z,13.90
2023-02-16T12:44:48.226Z,13.80
2023-02-16T12:47:29.922Z,13.80
2023-02-16T12:50:01.550Z,13.70
2023-02-16T12:52:46.563Z,13.70
2023-02-16T12:55:16.914Z,13.80
2023-02-16T12:58:00.789Z,13.90
2023-02-16T13:00:52.293Z,13.80
2023-02-16T13:03:46.534Z,13.80
2023-02-16T13:06:37.450Z,13.70
2023-02-16T13:09:13.594Z,13.60
2023-02-16T13:12:04.496Z,13.50
2023-02-16T13:14:36.836Z,13.60
2023-02-16T13:17:29.149Z,13.70
2023-02-16T13:19:57.035Z,13.70
2023-02-16T13:23:01.748Z,13.80
2023-02-16T13:25:45.248Z,13.80
2023-02-16T13:28:31.928Z,13.80
2023-02-16T13:31:29.334Z,13.70
2023-02-16T13:34:30.725Z,13.80
2023-02-16T13:37:04.558Z,13.80
2023-02-16T13:39:58.606Z,13.90
2023-02-16T13:43:06.885Z,13.70
2023-02-16T13:45:42.030Z,13.50
2023-02-16T13:48:40.288Z,13.20
2023-02-16T13:51:18.343Z,12.90
2023-02-16T13:54:09.302Z,12.60
2023-02-16T13:56:39.520Z,12.80
2023-02-16T13:59:21.255Z,12.80
2023-02-16T14:01:50.654Z,12.90
2023-02-16T14:04:23.874Z,12.90
2023-02-16T14:07:14.875Z,12.80
2023-02-16T14:09:42.211Z,12.80
2023-02-16T14:12:09.445Z,12.80
2023-02-16T14:14:42.644Z,13.00
2023-02-16T14:17:24.607Z,13.20
2023-02-16T14:20:12.031Z,13.30
2023-02-16T14:22:39.195Z,13.00
2023-02-16T14:25:22.581Z,12.60
2023-02-16T14:27:54.243Z,12.50
2023-02-16T14:30:30.753Z,12.60
2023-02-16T14:33:07.530Z,12.90
2023-02-16T14:35:39.873Z,13.10
2023-02-16T14:38:29.308Z,13.00
2023-02-16T14:40:59.272Z,12.80
2023-02-16T14:43:47.524Z,12.90
2023-02-16T14:46:46.813Z,12.90
2023-02-16T14:49:33.634Z,12.70
2023-02-16T14:52:19.446Z,13.10
2023-02-16T14:55:17.353Z,13.00
2023-02-16T14:57:50.674Z,13.10
2023-02-16T15:00:39.309Z,12.80
2023-02-16T15:03:19.033Z,12.90
2023-02-16T15:05:58.830Z,13.00
2023-02-16T15:08:35.845Z,13.10
2023-02-16T15:11:13.021Z,13.00
2023-02-16T15:13:40.506Z,13.10
2023-02-16T15:16:13.865Z,12.90
2023-02-16T15:18:48.046Z,12.80
2023-02-16T15:21:30.738Z,13.00
2023-02-16T15:23:59.855Z,13.10
2023-02-16T15:26:33.358Z,13.00
2023-02-16T15:29:22.286Z,12.90
2023-02-16T15:31:49.876Z,12.70
2023-02-16T15:34:34.801Z,12.90
2023-02-16T15:37:19.234Z,13.10
2023-02-16T15:40:02.902Z,13.00
2023-02-16T15:42:34.141Z,12.80
2023-02-16T15:45:01.388Z,12.50
2023-02-16T15:47:28.806Z,12.60
2023-02-16T15:49:56.121Z,12.80
2023-02-16T15:52:43.509Z,12.90
2023-02-16T15:55:12.978Z,12.80
2023-02-16T15:57:41.124Z,12.60
2023-02-16T16:00:20.837Z,12.40
2023-02-16T16:02:50.877Z,12.50
2023-02-16T16:05:28.430Z,12.80
2023-02-16T16:07:58.110Z,12.80
2023-02-16T16:10:32.630Z,12.70
2023-02-16T16:13:06.637Z,12.60
2023-02-16T16:15:43.341Z,12.50
2023-02-16T16:18:46.207Z,12.50
2023-02-16T16:21:13.734Z,12.60
2023-02-16T16:23:40.782Z,12.60
2023-02-16T16:26:23.553Z,12.60
2023-02-16T16:28:50.766Z,12.50
2023-02-16T16:31:17.905Z,12.40
2023-02-16T16:34:05.143Z,12.50
2023-02-16T16:36:47.429Z,12.60
2023-02-16T16:39:17.238Z,12.60
2023-02-16T16:42:09.207Z,12.50
2023-02-16T16:44:38.195Z,12.20
2023-02-16T16:47:38.623Z,12.10
2023-02-16T16:50:12.181Z,12.30
2023-02-16T16:52:46.647Z,12.40
2023-02-16T16:55:26.854Z,12.40
2023-02-16T16:58:05.913Z,12.40
2023-02-16T17:00:36.184Z,12.20
2023-02-16T17:03:06.164Z,12.20
2023-02-16T17:05:34.565Z,12.20
2023-02-16T17:08:02.194Z,12.40
2023-02-16T17:10:29.601Z,12.40
2023-02-16T17:12:59.681Z,12.40
2023-02-16T17:15:38.623Z,12.30
2023-02-16T17:18:06.984Z,12.10
2023-02-16T17:20:33.895Z,12.10
2023-02-16T17:23:04.819Z,12.10
2023-02-16T17:25:34.981Z,12.20
2023-02-16T17:28:02.827Z,12.30
2023-02-16T17:30:30.812Z,12.30
2023-02-16T17:32:58.166Z,12.20
2023-02-16T17:35:25.361Z,11.90
2023-02-16T17:37:52.323Z,11.90
2023-02-16T17:40:22.369Z,12.10
2023-02-16T17:42:51.290Z,12.30
2023-02-16T17:45:21.921Z,12.30
2023-02-16T17:47:51.666Z,12.30
2023-02-16T17:50:20.706Z,12.10
2023-02-16T17:52:47.775Z,12.20
2023-02-16T17:55:15.242Z,12.30
2023-02-16T17:57:42.261Z,12.30
2023-02-16T18:00:14.501Z,12.20
2023-02-16T18:02:41.475Z,12.20
2023-02-16T18:05:08.587Z,12.30
2023-02-16T18:07:36.068Z,12.30
2023-02-16T18:10:03.486Z,12.20
2023-02-16T18:12:30.581Z,12.00
2023-02-16T18:14:57.708Z,11.80
2023-02-16T18:17:24.817Z,11.80
2023-02-16T18:19:51.801Z,12.10
2023-02-16T18:22:18.943Z,12.10
2023-02-16T18:24:46.104Z,12.00
2023-02-16T18:27:13.739Z,11.80
2023-02-16T18:29:40.899Z,11.60
2023-02-16T18:32:07.997Z,11.80
2023-02-16T18:34:37.550Z,12.10
2023-02-16T18:37:04.646Z,12.10
2023-02-16T18:39:31.626Z,12.00
2023-02-16T18:41:58.714Z,11.60
2023-02-16T18:44:25.739Z,11.60
2023-02-16T18:46:52.802Z,12.00
2023-02-16T18:49:19.829Z,12.00
2023-02-16T18:51:46.870Z,11.90
2023-02-16T18:54:13.932Z,11.70
2023-02-16T18:56:41.293Z,11.40
2023-02-16T18:59:08.349Z,11.60
2023-02-16T19:01:35.416Z,11.90
2023-02-16T19:04:03.604Z,11.90
2023-02-16T19:06:30.695Z,11.80
2023-02-16T19:08:59.069Z,11.50
2023-02-16T19:11:28.200Z,11.40
2023-02-16T19:13:55.226Z,11.70
2023-02-16T19:16:22.827Z,11.90
2023-02-16T19:18:49.985Z,11.80
2023-02-16T19:21:38.240Z,11.90
2023-02-16T19:24:06.776Z,12.00
2023-02-16T19:26:33.925Z,11.90
2023-02-16T19:29:01.145Z,11.80
2023-02-16T19:31:31.709Z,11.40
2023-02-16T19:34:00.288Z,11.30
2023-02-16T19:36:30.049Z,11.50
2023-02-16T19:38:58.592Z,11.80
2023-02-16T19:41:38.064Z,11.70
2023-02-16T19:44:05.977Z,11.70
2023-02-16T19:46:34.474Z,11.90
2023-02-16T19:49:01.727Z,11.80
2023-02-16T19:51:29.430Z,11.70
2023-02-16T19:53:57.016Z,11.50
2023-02-16T19:56:27.808Z,11.20
2023-02-16T19:58:58.147Z,11.40
2023-02-16T20:01:28.100Z,11.70
2023-02-16T20:03:57.160Z,11.70
2023-02-16T20:06:34.385Z,11.70
2023-02-16T20:09:03.642Z,11.60
2023-02-16T20:11:31.453Z,11.80
2023-02-16T20:13:59.060Z,11.80
2023-02-16T20:16:27.083Z,11.80
2023-02-16T20:18:59.204Z,11.60
2023-02-16T20:21:29.182Z,11.70
2023-02-16T20:24:02.240Z,11.80
2023-02-16T20:26:34.393Z,11.80
2023-02-16T20:29:02.546Z,11.60
2023-02-16T20:31:35.596Z,11.30
2023-02-16T20:34:04.027Z,11.50
2023-02-16T20:36:32.279Z,11.70
2023-02-16T20:39:03.951Z,11.70
2023-02-16T20:41:31.019Z,11.60
2023-02-16T20:43:58.318Z,11.40
2023-02-16T20:46:28.877Z,11.40
2023-02-16T20:48:56.671Z,11.70
2023-02-16T20:51:24.080Z,11.80
2023-02-16T20:53:51.602Z,11.80
2023-02-16T20:56:22.404Z,11.70
2023-02-16T20:58:51.550Z,11.50
2023-02-16T21:01:37.473Z,11.40
2023-02-16T21:04:06.035Z,11.60
2023-02-16T21:06:34.186Z,11.80
2023-02-16T21:09:01.430Z,11.60
2023-02-16T21:11:28.692Z,11.50
2023-02-16T21:13:56.520Z,11.20
2023-02-16T21:16:24.373Z,11.10
2023-02-16T21:18:52.187Z,11.20
2023-02-16T21:21:19.534Z,11.50
2023-02-16T21:23:49.261Z,11.50
2023-02-16T21:26:18.105Z,11.40
2023-02-16T21:28:45.512Z,11.10
2023-02-16T21:31:18.165Z,10.90
2023-02-16T21:33:45.484Z,11.10
2023-02-16T21:36:15.963Z,11.50
2023-02-16T21:38:43.621Z,11.50
2023-02-16T21:41:26.293Z,11.50
2023-02-16T21:44:04.850Z,11.20
2023-02-16T21:46:36.487Z,11.20
2023-02-16T21:49:05.531Z,11.50
2023-02-16T21:51:35.499Z,11.50
2023-02-16T21:54:05.067Z,11.50
2023-02-16T21:56:40.587Z,11.30
2023-02-16T21:59:13.591Z,11.30
2023-02-16T22:01:44.110Z,11.60
2023-02-16T22:04:14.541Z,11.60
2023-02-16T22:06:44.663Z,11.50
2023-02-16T22:09:21.791Z,11.10
2023-02-16T22:11:49.917Z,11.00
2023-02-16T22:14:17.615Z,11.30
2023-02-16T22:16:46.623Z,11.50
2023-02-16T22:19:15.690Z,11.40
2023-02-16T22:21:44.804Z,11.40
2023-02-16T22:24:15.314Z,11.10
2023-02-16T22:26:42.663Z,11.00
2023-02-16T22:29:10.898Z,11.30
2023-02-16T22:31:39.118Z,11.40
2023-02-16T22:34:08.931Z,11.40
2023-02-16T22:36:37.780Z,11.20
2023-02-16T22:39:05.367Z,10.90
2023-02-16T22:41:33.101Z,11.30
2023-02-16T22:44:00.842Z,11.50
2023-02-16T22:46:28.900Z,11.50
2023-02-16T22:49:01.077Z,11.40
2023-02-16T22:51:30.369Z,11.10
2023-02-16T22:54:01.921Z,11.30
2023-02-16T22:56:30.215Z,11.40
2023-02-16T22:59:01.325Z,11.40
2023-02-16T23:01:30.457Z,11.30
2023-02-16T23:03:58.606Z,11.10
2023-02-16T23:06:29.044Z,11.30
2023-02-16T23:08:59.554Z,11.40
2023-02-16T23:11:28.433Z,11.40
2023-02-16T23:13:55.689Z,11.10
2023-02-16T23:16:24.924Z,10.80
2023-02-16T23:18:52.109Z,11.20
2023-02-16T23:21:25.049Z,11.40
2023-02-16T23:23:53.776Z,11.40
2023-02-16T23:26:24.020Z,11.20
2023-02-16T23:28:53.642Z,11.10
2023-02-16T23:31:21.771Z,11.30
2023-02-16T23:33:51.236Z,11.50
2023-02-16T23:36:18.426Z,11.40
2023-02-16T23:38:45.513Z,11.20
2023-02-16T23:41:14.053Z,10.90
2023-02-16T23:43:42.142Z,11.10
2023-02-16T23:46:10.062Z,11.30
2023-02-16T23:48:38.262Z,11.30
2023-02-16T23:51:05.700Z,11.10
2023-02-16T23:53:32.868Z,10.80
2023-02-16T23:56:02.097Z,11.10
2023-02-16T23:58:29.648Z,11.30
